الصفحة الرئيسية
METAR-TAF:

METAR-TAF

مطار :

كرمانشاه, إيران

دائرة عرض: 34-16N, خط طول: 047-07E, ارتفاع: 1320 متر

مراقبة الطقس الحالي

تاريخ ووقت الإصدار 36 دقيقة قبل الساعة 23:00UTC
ريح 4 عقدة من الشرق
درجة الحرارة 19°درجة مئوية
الرطوبة 24%
ضغط 1011 hPa
الرؤية 10 كم أو أكثر
الغيوم لا تقل 1500 م ولا وجود لمزنة ركامية السحاب الأسود

METAR: OICC 242300Z 08004KT CAVOK 19/M02 Q1010 A2984

زمن: 04:06 (23:36 UTC)

توقعات

تاريخ ووقت الإصدار 2ساعات و 56 دقيقة قبل الساعة 20:40UTC
التوقعات صالحة من24 الساعة 21 UTC إلى 25 الساعة 06 UTC
ريح 8 عقدة من الغرب
الرؤية 10 كم أو أكثر
الغيوم لا تقل 1500 م ولا وجود لمزنة ركامية السحاب الأسود

TAF: OICC 242040Z 2421/2506 28008KT CAVOK

أرصاد الطقس والتوقعات من أكثر من 4000 مطار (تقارير الطقس للمطار METAR والتنبؤ بالطقس بالمطارTAF).

المحطات المتاحة هي النقط الصفراء والحمراء على الخريطة.

حرك المؤشر فوق النقطة لمعرفة اسم المحطة.

ثم انقر لمعرفة أرصاد وتوقعات الطقس.

لتغيير الخارطة: اضغط على الأزرار الخضراء مع رمز الصليب الأسود للتكبير. على الزر الأخضر مع شرطة للتصغير، أو على الأسهم الخضراء للخرائط المجاورة.


METAR-TAF: